createdAt,value
2019-05-21T00:02:49.527Z,12.80
2019-05-21T00:07:56.031Z,12.90
2019-05-21T00:13:02.343Z,12.80
2019-05-21T00:18:08.578Z,12.90
2019-05-21T00:23:14.997Z,12.80
2019-05-21T00:28:56.534Z,12.80
2019-05-21T00:34:43.963Z,12.80
2019-05-21T00:40:22.761Z,12.70
2019-05-21T00:45:29.074Z,12.70
2019-05-21T00:50:35.324Z,12.80
2019-05-21T00:55:41.843Z,12.70
2019-05-21T01:00:48.247Z,12.70
2019-05-21T01:05:56.431Z,12.80
2019-05-21T01:11:02.896Z,12.80
2019-05-21T01:16:09.550Z,12.70
2019-05-21T01:21:15.947Z,12.70
2019-05-21T01:26:24.336Z,12.60
2019-05-21T01:31:30.555Z,12.80
2019-05-21T01:36:36.976Z,12.70
2019-05-21T01:41:43.401Z,12.60
2019-05-21T01:46:49.961Z,12.70
2019-05-21T01:51:56.641Z,12.60
2019-05-21T01:57:04.298Z,12.60
2019-05-21T02:02:10.677Z,12.60
2019-05-21T02:07:17.172Z,12.60
2019-05-21T02:12:23.525Z,12.60
2019-05-21T02:17:29.838Z,12.50
2019-05-21T02:22:36.246Z,12.50
2019-05-21T02:27:42.749Z,12.50
2019-05-21T02:32:51.000Z,12.50
2019-05-21T02:37:57.536Z,12.40
2019-05-21T02:43:05.692Z,12.50
2019-05-21T02:48:12.043Z,12.50
2019-05-21T02:53:18.459Z,12.40
2019-05-21T02:58:24.781Z,12.50
2019-05-21T03:03:32.157Z,12.50
2019-05-21T03:08:38.692Z,12.40
2019-05-21T03:13:46.856Z,12.40
2019-05-21T03:18:53.109Z,12.50
2019-05-21T03:24:11.517Z,12.50
2019-05-21T03:29:18.449Z,12.50
2019-05-21T03:34:24.797Z,12.50
2019-05-21T03:39:31.139Z,12.60
2019-05-21T03:44:37.455Z,12.60
2019-05-21T03:49:43.708Z,12.60
2019-05-21T03:54:50.286Z,12.50
2019-05-21T03:59:58.009Z,12.60
2019-05-21T04:05:05.007Z,12.60
2019-05-21T04:10:16.906Z,12.60
2019-05-21T04:15:26.673Z,12.60
2019-05-21T04:20:34.691Z,12.60
2019-05-21T04:25:52.652Z,12.60
2019-05-21T04:30:59.150Z,12.60
2019-05-21T04:36:06.826Z,12.60
2019-05-21T04:41:13.216Z,12.70
2019-05-21T04:46:19.846Z,12.70
2019-05-21T04:56:40.179Z,12.80
2019-05-21T05:01:47.865Z,12.70
2019-05-21T05:06:54.311Z,12.70
2019-05-21T05:12:00.600Z,12.70
2019-05-21T05:17:07.083Z,12.60
2019-05-21T05:22:13.870Z,12.70
2019-05-21T05:27:20.348Z,12.70
2019-05-21T05:32:26.838Z,12.60
2019-05-21T05:37:43.149Z,12.50
2019-05-21T05:42:41.750Z,12.40
2019-05-21T05:47:48.185Z,12.30
2019-05-21T05:52:54.589Z,12.40
2019-05-21T05:58:01.217Z,12.40
2019-05-21T06:03:08.525Z,12.40
2019-05-21T06:08:14.826Z,12.50
2019-05-21T06:13:21.544Z,12.50
2019-05-21T06:18:27.926Z,12.30
2019-05-21T06:23:34.440Z,12.30
2019-05-21T06:28:40.847Z,12.40
2019-05-21T06:33:47.203Z,12.50
2019-05-21T06:38:53.446Z,12.30
2019-05-21T06:43:59.642Z,12.30
2019-05-21T06:49:05.850Z,12.30
2019-05-21T06:54:11.994Z,12.30
2019-05-21T06:59:18.275Z,12.30
2019-05-21T07:04:25.272Z,12.40
2019-05-21T07:09:31.500Z,12.40
2019-05-21T07:14:37.754Z,12.40
2019-05-21T07:19:44.029Z,12.50
2019-05-21T07:24:50.288Z,12.50
2019-05-21T07:29:56.528Z,12.50
2019-05-21T07:35:02.739Z,12.50
2019-05-21T07:40:28.012Z,12.40
2019-05-21T07:45:34.276Z,12.30
2019-05-21T07:50:40.487Z,12.30
2019-05-21T07:55:46.714Z,12.30
2019-05-21T08:00:53.099Z,12.40
2019-05-21T08:05:59.528Z,12.50
2019-05-21T08:11:05.985Z,12.40
2019-05-21T08:16:12.296Z,12.50
2019-05-21T08:21:18.601Z,12.50
2019-05-21T08:26:25.004Z,12.50
2019-05-21T08:31:31.262Z,12.60
2019-05-21T08:36:37.689Z,12.50
2019-05-21T08:41:43.963Z,12.60
2019-05-21T08:46:50.244Z,12.50
2019-05-21T08:51:56.460Z,12.60
2019-05-21T08:57:02.785Z,12.60
2019-05-21T09:02:09.140Z,12.60
2019-05-21T09:07:15.677Z,12.60
2019-05-21T09:12:22.014Z,12.60
2019-05-21T09:17:28.268Z,12.70
2019-05-21T09:22:34.625Z,12.70
2019-05-21T09:27:41.179Z,12.70
2019-05-21T09:32:47.649Z,12.70
2019-05-21T09:37:53.808Z,12.70
2019-05-21T09:43:00.220Z,12.80
2019-05-21T09:48:06.588Z,12.80
2019-05-21T09:53:12.878Z,12.80
2019-05-21T09:58:27.146Z,12.80
2019-05-21T10:03:35.304Z,12.80
2019-05-21T10:08:41.515Z,12.90
2019-05-21T10:13:47.773Z,12.80
2019-05-21T10:18:53.940Z,12.80
2019-05-21T10:24:00.093Z,12.70
2019-05-21T10:29:06.316Z,12.90
2019-05-21T10:34:13.469Z,12.80
2019-05-21T10:39:19.857Z,12.90
2019-05-21T10:44:25.941Z,13.00
2019-05-21T10:49:32.168Z,13.00
2019-05-21T10:54:38.564Z,13.20
2019-05-21T10:59:46.002Z,13.10
2019-05-21T11:05:02.085Z,13.10
2019-05-21T11:10:08.728Z,13.20
2019-05-21T11:15:15.925Z,13.20
2019-05-21T11:20:23.458Z,13.10
2019-05-21T11:25:29.783Z,13.20
2019-05-21T11:30:35.971Z,13.30
2019-05-21T11:35:42.401Z,13.30
2019-05-21T11:40:50.971Z,13.30
2019-05-21T11:45:56.614Z,13.20
2019-05-21T11:51:02.866Z,13.10
2019-05-21T11:56:08.985Z,13.10
2019-05-21T12:01:15.408Z,13.10
2019-05-21T12:06:21.647Z,13.20
2019-05-21T12:11:27.897Z,13.20
2019-05-21T12:16:34.085Z,13.20
2019-05-21T12:21:40.294Z,13.30
2019-05-21T12:26:46.572Z,13.40
2019-05-21T12:31:52.760Z,13.20
2019-05-21T12:36:58.998Z,13.30
2019-05-21T12:42:05.428Z,13.20
2019-05-21T12:47:11.906Z,13.20
2019-05-21T12:52:18.363Z,13.40
2019-05-21T12:57:24.693Z,13.40
2019-05-21T13:02:31.251Z,13.50
2019-05-21T13:07:37.656Z,13.50
2019-05-21T13:12:43.914Z,13.50
2019-05-21T13:17:50.202Z,13.60
2019-05-21T13:22:56.476Z,13.60
2019-05-21T13:28:02.761Z,13.70
2019-05-21T13:33:09.176Z,13.60
2019-05-21T13:38:16.568Z,13.70
2019-05-21T13:43:23.031Z,13.70
2019-05-21T13:48:29.512Z,13.80
2019-05-21T13:53:35.829Z,13.70
2019-05-21T13:58:42.333Z,13.70
2019-05-21T14:03:49.181Z,13.80
2019-05-21T14:08:55.456Z,13.80
2019-05-21T14:14:01.703Z,13.80
2019-05-21T14:19:08.168Z,13.80
2019-05-21T14:24:14.405Z,13.80
2019-05-21T14:29:20.618Z,13.80
2019-05-21T14:34:26.839Z,13.70
2019-05-21T14:39:44.475Z,13.70
2019-05-21T14:44:51.670Z,13.80
2019-05-21T14:49:57.921Z,13.90
2019-05-21T14:55:04.694Z,13.80
2019-05-21T15:00:22.368Z,13.80
2019-05-21T15:05:28.699Z,13.90
2019-05-21T15:10:48.122Z,13.90
2019-05-21T15:15:42.823Z,14.00
2019-05-21T15:20:54.161Z,14.00
2019-05-21T15:26:00.554Z,13.90
2019-05-21T15:31:06.884Z,13.80
2019-05-21T15:36:13.183Z,13.80
2019-05-21T15:41:19.959Z,13.90
2019-05-21T15:46:26.400Z,13.80
2019-05-21T15:51:32.718Z,13.90
2019-05-21T15:56:39.077Z,13.90
2019-05-21T16:01:45.342Z,13.80
2019-05-21T16:06:51.613Z,13.90
2019-05-21T16:11:58.177Z,13.90
2019-05-21T16:17:05.234Z,13.90
2019-05-21T16:22:12.766Z,14.00
2019-05-21T16:27:19.103Z,14.00
2019-05-21T16:32:25.532Z,14.10
2019-05-21T16:37:31.912Z,14.00
2019-05-21T16:42:38.143Z,13.90
2019-05-21T16:47:46.707Z,13.90
2019-05-21T16:52:52.547Z,13.90
2019-05-21T16:57:58.953Z,14.00
2019-05-21T17:03:05.626Z,14.00
2019-05-21T17:08:11.970Z,14.00
2019-05-21T17:13:18.312Z,14.00
2019-05-21T17:18:24.568Z,13.90
2019-05-21T17:23:30.915Z,13.90
2019-05-21T17:28:37.130Z,14.00
2019-05-21T17:33:43.354Z,14.10
2019-05-21T17:38:49.581Z,14.00
2019-05-21T17:43:56.009Z,14.00
2019-05-21T17:49:02.247Z,13.90
2019-05-21T17:54:08.869Z,14.00
2019-05-21T17:59:19.808Z,14.00
2019-05-21T18:04:26.541Z,13.90
2019-05-21T18:09:35.989Z,14.00
2019-05-21T18:14:42.355Z,13.90
2019-05-21T18:19:50.220Z,13.90
2019-05-21T18:24:56.648Z,13.70
2019-05-21T18:30:03.975Z,13.80
2019-05-21T18:35:12.255Z,13.70
2019-05-21T18:40:19.343Z,13.80
2019-05-21T18:45:25.744Z,13.70
2019-05-21T18:50:36.383Z,13.70
2019-05-21T18:55:40.805Z,13.70
2019-05-21T19:00:49.230Z,13.50
2019-05-21T19:05:55.681Z,13.50
2019-05-21T19:11:02.367Z,13.40
2019-05-21T19:16:08.820Z,13.40
2019-05-21T19:21:19.682Z,13.30
2019-05-21T19:26:26.119Z,13.30
2019-05-21T19:31:32.611Z,13.30
2019-05-21T19:36:38.808Z,13.30
2019-05-21T19:41:44.912Z,13.20
2019-05-21T19:46:51.313Z,13.30
2019-05-21T19:51:57.508Z,13.10
2019-05-21T19:57:04.227Z,13.00
2019-05-21T20:02:10.519Z,12.90
2019-05-21T20:07:17.590Z,13.00
2019-05-21T20:12:26.325Z,13.10
2019-05-21T20:17:32.725Z,13.00
2019-05-21T20:22:39.816Z,12.90
2019-05-21T20:27:46.412Z,12.90
2019-05-21T20:32:53.427Z,12.90
2019-05-21T20:38:00.232Z,13.00
2019-05-21T20:43:06.739Z,13.00
2019-05-21T20:48:16.565Z,12.90
2019-05-21T20:53:22.747Z,12.80
2019-05-21T20:58:29.971Z,12.90
2019-05-21T21:03:36.881Z,12.80
2019-05-21T21:08:44.252Z,12.70
2019-05-21T21:13:51.862Z,12.80
2019-05-21T21:18:59.485Z,12.70
2019-05-21T21:24:07.913Z,12.70
2019-05-21T21:29:14.220Z,12.60
2019-05-21T21:34:20.581Z,12.60
2019-05-21T21:39:27.826Z,12.60
2019-05-21T21:44:34.560Z,12.50
2019-05-21T21:49:42.796Z,12.60
2019-05-21T21:54:49.014Z,12.60
2019-05-21T21:59:55.810Z,12.60
2019-05-21T22:05:03.191Z,12.60
2019-05-21T22:10:11.121Z,12.60
2019-05-21T22:15:18.215Z,12.40
2019-05-21T22:20:24.865Z,12.50
2019-05-21T22:25:31.133Z,12.40
2019-05-21T22:30:37.916Z,12.60
2019-05-21T22:35:44.204Z,12.50
2019-05-21T22:40:50.439Z,12.30
2019-05-21T22:45:57.142Z,12.20
2019-05-21T22:51:03.690Z,12.40
2019-05-21T22:56:10.042Z,12.40
2019-05-21T23:01:17.364Z,12.50
2019-05-21T23:06:24.076Z,12.30
2019-05-21T23:11:31.517Z,12.30
2019-05-21T23:16:38.021Z,12.30
2019-05-21T23:21:53.522Z,12.40
2019-05-21T23:27:00.307Z,12.20
2019-05-21T23:32:08.098Z,12.20
2019-05-21T23:37:21.232Z,12.20
2019-05-21T23:42:29.874Z,12.10
2019-05-21T23:47:35.907Z,12.00
2019-05-21T23:52:42.160Z,11.90
2019-05-21T23:57:48.556Z,11.90
